Time;durP1;ratioP1;P1;durP2;ratioP2;P2;SDS_P1;SDS_P2;PMS_P1;PMS_P2;Temp;Humidity;BMP_temperature;BMP_pressure;BME280_temperature;BME280_humidity;BME280_pressure;Samples;Min_cycle;Max_cycle;Signal;HPM_P1;HPM_P2
2023/08/18 00:00:25;;;;;;;;;;;;;;;20.19;81.37;98137.94;5070837;28;19988;-64
2023/08/18 00:02:53;;;;;;;;;;;;;;;20.08;82.02;98118.47;5088813;28;19935;-65
2023/08/18 00:05:22;;;;;;;;;;;;;;;20.15;81.59;98116.63;5092974;28;19924;-65
2023/08/18 00:07:50;;;;;;;;;;;;;;;20.21;81.42;98108.84;5074628;28;19925;-64
2023/08/18 00:10:18;;;;;;;;;;;;;;;20.17;81.34;98119.00;5091955;28;19985;-66
2023/08/18 00:12:46;;;;;;;;;;;;;;;20.04;81.91;98123.16;5074291;28;19931;-65
2023/08/18 00:15:14;;;;;;;;;;;;;;;20.11;81.74;98131.53;5092965;28;19931;-65
2023/08/18 00:17:42;;;;;;;;;;;;;;;20.13;81.59;98140.22;5092300;28;19955;-65
2023/08/18 00:20:11;;;;;;;;;;;;;;;20.01;81.63;98134.91;5084885;28;19939;-65
2023/08/18 00:22:40;;;;;;;;;;;;;;;19.91;82.15;98136.31;5085778;28;20293;-65
2023/08/18 00:25:09;;;;;;;;;;;;;;;19.99;82.21;98135.28;5091961;28;19924;-65
2023/08/18 00:27:38;;;;;;;;;;;;;;;20.04;82.28;98137.72;5072788;28;19924;-64
2023/08/18 00:30:07;;;;;;;;;;;;;;;20.01;82.01;98143.97;5073262;28;19932;-64
2023/08/18 00:32:35;;;;;;;;;;;;;;;19.92;82.02;98145.38;5056422;28;19924;-64
2023/08/18 00:35:03;;;;;;;;;;;;;;;19.79;82.62;98151.06;5091567;28;20007;-67
2023/08/18 00:37:31;;;;;;;;;;;;;;;19.83;82.35;98148.38;5072593;28;19935;-64
2023/08/18 00:40:00;;;;;;;;;;;;;;;19.76;81.91;98145.47;5073709;28;19988;-66
2023/08/18 00:42:28;;;;;;;;;;;;;;;19.69;81.96;98142.59;5073762;28;20014;-64
2023/08/18 00:44:57;;;;;;;;;;;;;;;19.80;81.63;98138.88;5077460;28;19924;-64
2023/08/18 00:47:25;;;;;;;;;;;;;;;19.83;81.45;98140.13;5080263;28;19930;-64
2023/08/18 00:49:55;;;;;;;;;;;;;;;19.80;81.22;98130.59;5064654;28;20434;-64
2023/08/18 00:52:23;;;;;;;;;;;;;;;19.75;80.87;98122.63;5072093;28;19928;-65
2023/08/18 00:54:51;;;;;;;;;;;;;;;19.82;80.84;98121.97;5086381;28;20370;-65
2023/08/18 00:57:20;;;;;;;;;;;;;;;19.85;80.78;98124.78;5086786;28;19977;-64
2023/08/18 00:59:49;;;;;;;;;;;;;;;19.87;80.55;98122.47;5092769;28;19924;-65
2023/08/18 01:02:17;;;;;;;;;;;;;;;19.87;80.44;98133.50;5107499;28;19931;-64
2023/08/18 01:04:45;;;;;;;;;;;;;;;19.88;80.06;98132.34;5073746;28;19924;-65
2023/08/18 01:07:13;;;;;;;;;;;;;;;19.90;80.17;98129.19;5073830;28;19928;-65
2023/08/18 01:09:40;;;;;;;;;;;;;;;19.86;79.49;98131.88;5073694;28;19943;-64
2023/08/18 01:12:12;;;;;;;;;;;;;;;19.67;79.85;98133.91;5073048;28;19993;-65
2023/08/18 01:14:45;;;;;;;;;;;;;;;19.63;80.01;98123.59;5073524;28;19928;-64
2023/08/18 01:17:18;;;;;;;;;;;;;;;19.65;80.35;98131.50;5073207;28;19924;-64
2023/08/18 01:19:47;;;;;;;;;;;;;;;19.61;80.13;98136.97;5073081;28;20015;-65
2023/08/18 01:22:15;;;;;;;;;;;;;;;19.48;80.35;98129.97;5073508;28;20282;-65
2023/08/18 01:24:45;;;;;;;;;;;;;;;19.55;80.61;98135.66;5086395;28;19924;-64
2023/08/18 01:27:12;;;;;;;;;;;;;;;19.55;80.61;98115.56;5073561;28;19931;-64
2023/08/18 01:29:40;;;;;;;;;;;;;;;19.56;80.60;98125.41;5072009;28;19985;-65
2023/08/18 01:32:08;;;;;;;;;;;;;;;19.50;80.53;98122.16;5088390;28;19924;-65
2023/08/18 01:34:37;;;;;;;;;;;;;;;19.56;80.42;98122.66;5073304;28;19924;-64
2023/08/18 01:37:05;;;;;;;;;;;;;;;19.59;79.96;98122.75;5091184;28;20418;-64
2023/08/18 01:39:33;;;;;;;;;;;;;;;19.61;80.06;98114.13;5090900;28;19924;-65
2023/08/18 01:42:02;;;;;;;;;;;;;;;19.53;79.55;98117.88;5072577;28;19931;-64
2023/08/18 01:44:30;;;;;;;;;;;;;;;19.50;79.41;98113.91;5076205;28;19928;-64
2023/08/18 01:46:58;;;;;;;;;;;;;;;19.44;79.79;98109.03;5073651;28;19924;-65
2023/08/18 01:49:26;;;;;;;;;;;;;;;19.45;79.98;98111.44;5101829;28;19928;-64
2023/08/18 01:51:53;;;;;;;;;;;;;;;19.35;79.57;98110.06;5072835;28;19928;-64
2023/08/18 01:54:22;;;;;;;;;;;;;;;19.35;80.05;98107.31;5061626;28;19925;-65
2023/08/18 01:56:50;;;;;;;;;;;;;;;19.22;80.62;98105.84;5043687;28;20379;-64
2023/08/18 01:59:19;;;;;;;;;;;;;;;19.24;80.49;98103.56;5037599;28;19955;-65
2023/08/18 02:01:47;;;;;;;;;;;;;;;19.22;80.89;98094.84;5051945;28;20025;-65
2023/08/18 02:04:16;;;;;;;;;;;;;;;19.21;81.26;98107.03;5049661;28;19936;-64
2023/08/18 02:06:44;;;;;;;;;;;;;;;19.20;81.22;98105.44;5067776;28;19931;-66
2023/08/18 02:09:12;;;;;;;;;;;;;;;19.28;80.81;98098.91;5067103;28;20390;-65
2023/08/18 02:11:40;;;;;;;;;;;;;;;19.27;80.48;98099.25;5043912;28;20453;-64
2023/08/18 02:14:08;;;;;;;;;;;;;;;19.26;80.45;98101.22;5048506;28;19925;-64
2023/08/18 02:16:37;;;;;;;;;;;;;;;19.21;80.73;98106.22;5054614;28;19935;-64
2023/08/18 02:19:05;;;;;;;;;;;;;;;19.19;80.43;98103.84;5059967;28;19936;-65
2023/08/18 02:21:32;;;;;;;;;;;;;;;19.17;80.33;98106.16;5044457;28;19925;-65
2023/08/18 02:24:01;;;;;;;;;;;;;;;19.15;80.72;98104.94;5090903;28;20031;-65
2023/08/18 02:26:29;;;;;;;;;;;;;;;19.10;80.66;98100.50;5059996;28;19929;-64
2023/08/18 02:28:57;;;;;;;;;;;;;;;19.11;80.30;98113.13;5054332;28;19930;-64
2023/08/18 02:31:25;;;;;;;;;;;;;;;19.07;80.44;98109.50;5058636;28;19929;-65
2023/08/18 02:33:54;;;;;;;;;;;;;;;19.06;80.84;98110.66;5061694;28;20366;-64
2023/08/18 02:36:22;;;;;;;;;;;;;;;19.09;80.40;98107.19;5063056;28;20352;-64
2023/08/18 02:38:50;;;;;;;;;;;;;;;19.09;80.71;98104.44;5060678;28;19929;-65
2023/08/18 02:41:18;;;;;;;;;;;;;;;19.15;80.59;98105.72;5047273;28;20283;-64
2023/08/18 02:43:47;;;;;;;;;;;;;;;19.08;80.49;98114.66;5053249;28;19924;-64
2023/08/18 02:46:14;;;;;;;;;;;;;;;19.11;80.29;98113.91;5091709;28;19932;-65
2023/08/18 02:48:42;;;;;;;;;;;;;;;19.07;80.07;98117.78;5041649;28;19933;-64
2023/08/18 02:51:11;;;;;;;;;;;;;;;18.98;79.96;98117.19;5049406;28;19934;-65
2023/08/18 02:53:41;;;;;;;;;;;;;;;18.88;80.60;98113.03;5052223;28;19925;-65
2023/08/18 02:56:09;;;;;;;;;;;;;;;18.94;80.48;98108.03;5084738;28;19949;-64
2023/08/18 02:58:38;;;;;;;;;;;;;;;18.95;80.29;98118.69;5071097;28;20451;-65
2023/08/18 03:01:06;;;;;;;;;;;;;;;18.94;80.42;98117.09;5071656;28;19924;-64
2023/08/18 03:03:34;;;;;;;;;;;;;;;18.93;79.95;98118.25;5068631;28;19931;-64
2023/08/18 03:06:03;;;;;;;;;;;;;;;19.01;80.25;98121.94;5101439;28;19924;-67
2023/08/18 03:08:35;;;;;;;;;;;;;;;18.97;80.06;98119.13;5069066;28;20385;-64
2023/08/18 03:11:04;;;;;;;;;;;;;;;19.00;80.16;98117.59;5071129;28;19924;-64
2023/08/18 03:13:32;;;;;;;;;;;;;;;18.98;79.61;98126.25;5089683;28;19924;-65
2023/08/18 03:16:00;;;;;;;;;;;;;;;19.02;80.06;98120.81;5089899;28;19932;-65
2023/08/18 03:18:29;;;;;;;;;;;;;;;19.04;79.79;98124.78;5105418;28;19924;-65
2023/08/18 03:21:00;;;;;;;;;;;;;;;19.05;79.60;98120.88;5060507;28;20296;-64
2023/08/18 03:23:29;;;;;;;;;;;;;;;18.93;80.13;98117.47;5071679;28;19928;-64
2023/08/18 03:26:03;;;;;;;;;;;;;;;18.90;79.77;98118.97;5059018;28;19924;-65
2023/08/18 03:28:32;;;;;;;;;;;;;;;18.88;80.01;98126.00;5070650;28;19931;-64
2023/08/18 03:31:01;;;;;;;;;;;;;;;18.89;79.99;98119.34;5071550;28;19924;-64
2023/08/18 03:33:31;;;;;;;;;;;;;;;18.84;80.16;98121.22;5070979;28;20013;-64
2023/08/18 03:36:00;;;;;;;;;;;;;;;18.84;79.97;98120.41;5071562;28;19928;-66
2023/08/18 03:38:28;;;;;;;;;;;;;;;18.89;79.69;98122.88;5072731;28;19935;-64
2023/08/18 03:40:58;;;;;;;;;;;;;;;18.80;80.23;98108.53;5075723;28;20022;-64
2023/08/18 03:43:27;;;;;;;;;;;;;;;18.78;80.03;98113.59;5073626;28;19931;-64
2023/08/18 03:45:57;;;;;;;;;;;;;;;18.79;80.18;98118.75;5093975;28;19924;-64
2023/08/18 03:48:28;;;;;;;;;;;;;;;18.72;80.04;98112.31;5087003;28;19935;-64
2023/08/18 03:50:58;;;;;;;;;;;;;;;18.58;80.20;98101.72;5075530;28;19931;-64
2023/08/18 03:53:26;;;;;;;;;;;;;;;18.67;80.52;98105.09;5098614;28;20535;-64
2023/08/18 03:55:57;;;;;;;;;;;;;;;18.76;80.43;98110.44;5054512;28;19938;-65
2023/08/18 03:58:25;;;;;;;;;;;;;;;18.77;80.21;98112.81;5056273;28;19925;-65
2023/08/18 04:01:01;;;;;;;;;;;;;;;18.76;79.79;98111.22;5052097;28;19933;-64
2023/08/18 04:03:29;;;;;;;;;;;;;;;18.80;79.92;98112.09;5048389;28;19925;-65
2023/08/18 04:05:57;;;;;;;;;;;;;;;18.79;79.65;98107.72;5051825;28;19929;-65
2023/08/18 04:08:25;;;;;;;;;;;;;;;18.81;79.60;98105.44;5051278;28;19936;-65
2023/08/18 04:10:54;;;;;;;;;;;;;;;18.82;79.39;98107.03;5051673;28;19929;-65
2023/08/18 04:13:31;;;;;;;;;;;;;;;18.81;79.40;98105.44;5082419;28;20310;-65
2023/08/18 04:16:14;;;;;;;;;;;;;;;18.81;79.82;98101.88;5041399;28;19931;-64
2023/08/18 04:18:42;;;;;;;;;;;;;;;18.88;79.38;98104.78;5051673;28;19928;-65
2023/08/18 04:21:10;;;;;;;;;;;;;;;18.78;79.62;98111.66;5047907;28;19947;-64
2023/08/18 04:23:39;;;;;;;;;;;;;;;18.73;79.87;98114.69;5048904;28;19924;-65
2023/08/18 04:26:07;;;;;;;;;;;;;;;18.67;79.64;98112.56;5059051;28;19924;-64
2023/08/18 04:28:35;;;;;;;;;;;;;;;18.76;79.44;98118.69;5051630;28;19959;-65
2023/08/18 04:31:04;;;;;;;;;;;;;;;18.73;79.09;98114.69;5054061;28;19932;-65
2023/08/18 04:33:53;;;;;;;;;;;;;;;18.68;79.38;98112.22;5041714;28;19924;-64
2023/08/18 04:36:21;;;;;;;;;;;;;;;18.77;79.27;98121.06;5049352;28;20027;-65
2023/08/18 04:38:49;;;;;;;;;;;;;;;18.80;79.67;98125.88;5050840;28;19928;-64
2023/08/18 04:41:24;;;;;;;;;;;;;;;18.70;78.91;98123.69;5048911;28;20337;-64
2023/08/18 04:43:52;;;;;;;;;;;;;;;18.77;79.20;98131.28;5049238;28;19925;-65
2023/08/18 04:46:24;;;;;;;;;;;;;;;18.74;79.36;98132.78;5047515;28;20036;-64
2023/08/18 04:48:55;;;;;;;;;;;;;;;18.63;79.96;98133.69;5043992;28;20516;-64
2023/08/18 04:51:23;;;;;;;;;;;;;;;18.71;79.52;98139.03;5059213;28;19976;-64
2023/08/18 04:53:52;;;;;;;;;;;;;;;18.77;79.50;98132.06;5050136;28;19929;-64
2023/08/18 04:56:20;;;;;;;;;;;;;;;18.75;80.14;98139.09;5063475;28;20492;-64
2023/08/18 04:58:48;;;;;;;;;;;;;;;18.82;80.14;98137.31;5092042;28;19971;-64
2023/08/18 05:01:16;;;;;;;;;;;;;;;18.78;80.16;98135.63;5073914;28;19924;-64
2023/08/18 05:03:44;;;;;;;;;;;;;;;18.81;79.95;98127.47;5073307;28;19925;-64
2023/08/18 05:06:13;;;;;;;;;;;;;;;18.66;80.26;98133.78;5073978;28;19985;-65
2023/08/18 05:08:42;;;;;;;;;;;;;;;18.69;80.20;98127.56;5092171;28;20007;-65
2023/08/18 05:11:10;;;;;;;;;;;;;;;18.77;80.36;98125.78;5092531;28;19924;-65
2023/08/18 05:13:40;;;;;;;;;;;;;;;18.78;79.97;98127.38;5073247;28;19935;-64
2023/08/18 05:16:08;;;;;;;;;;;;;;;18.77;80.11;98115.56;5071513;28;19924;-66
2023/08/18 05:18:36;;;;;;;;;;;;;;;18.72;80.03;98112.31;5073642;28;19924;-65
2023/08/18 05:21:04;;;;;;;;;;;;;;;18.71;79.94;98122.50;5089661;28;19928;-65
2023/08/18 05:23:33;;;;;;;;;;;;;;;18.75;80.23;98122.56;5073962;28;19928;-64
2023/08/18 05:26:01;;;;;;;;;;;;;;;18.79;79.88;98121.50;5091927;28;20278;-65
2023/08/18 05:28:29;;;;;;;;;;;;;;;18.81;79.85;98119.19;5091569;28;19928;-66
2023/08/18 05:30:58;;;;;;;;;;;;;;;18.88;79.94;98120.50;5092447;28;19932;-65
2023/08/18 05:33:26;;;;;;;;;;;;;;;18.84;79.65;98125.94;5073534;28;19928;-65
2023/08/18 05:35:57;;;;;;;;;;;;;;;18.93;79.88;98128.47;5107733;28;19924;-64
2023/08/18 05:38:25;;;;;;;;;;;;;;;18.88;80.36;98131.53;5071355;28;19924;-65
2023/08/18 05:40:55;;;;;;;;;;;;;;;18.93;80.37;98126.53;5072716;28;20373;-65
2023/08/18 05:43:23;;;;;;;;;;;;;;;18.99;79.86;98127.03;5105046;28;19928;-64
2023/08/18 05:45:51;;;;;;;;;;;;;;;19.04;79.60;98129.50;5091683;28;19956;-64
2023/08/18 05:48:19;;;;;;;;;;;;;;;18.98;79.62;98133.69;5105077;28;20024;-65
2023/08/18 05:50:48;;;;;;;;;;;;;;;18.92;80.40;98135.94;5097550;28;19924;-64
2023/08/18 05:53:15;;;;;;;;;;;;;;;18.91;80.73;98139.03;5090399;28;19931;-66
2023/08/18 05:55:45;;;;;;;;;;;;;;;19.01;80.25;98138.47;5080178;28;19974;-64
2023/08/18 05:58:14;;;;;;;;;;;;;;;19.08;79.69;98141.38;5098425;28;20411;-65
2023/08/18 06:00:42;;;;;;;;;;;;;;;19.09;79.81;98148.50;5091293;28;19924;-65
2023/08/18 06:03:09;;;;;;;;;;;;;;;18.94;79.55;98147.38;5090208;28;19931;-64
2023/08/18 06:05:37;;;;;;;;;;;;;;;18.92;79.70;98148.91;5089081;28;19998;-65
2023/08/18 06:08:05;;;;;;;;;;;;;;;18.99;79.57;98155.34;5090652;28;20351;-65
2023/08/18 06:10:33;;;;;;;;;;;;;;;18.97;79.60;98145.88;5089457;28;19924;-64
2023/08/18 06:13:01;;;;;;;;;;;;;;;19.02;78.94;98151.91;5072382;28;20394;-65
2023/08/18 06:15:30;;;;;;;;;;;;;;;19.10;78.68;98153.63;5088855;28;19928;-65
2023/08/18 06:17:58;;;;;;;;;;;;;;;19.17;78.87;98155.72;5090772;28;19931;-65
2023/08/18 06:20:26;;;;;;;;;;;;;;;19.27;78.92;98152.41;5089570;28;19925;-65
2023/08/18 06:22:54;;;;;;;;;;;;;;;19.34;78.98;98154.53;5082194;28;20381;-65
2023/08/18 06:25:24;;;;;;;;;;;;;;;19.33;79.08;98148.22;5087784;28;19931;-65
2023/08/18 06:27:52;;;;;;;;;;;;;;;19.43;78.89;98143.25;5090107;28;20559;-65
2023/08/18 06:30:20;;;;;;;;;;;;;;;19.52;78.85;98154.84;5083177;28;19925;-65
2023/08/18 06:32:49;;;;;;;;;;;;;;;19.48;77.84;98145.72;5085743;28;20277;-64
2023/08/18 06:35:17;;;;;;;;;;;;;;;19.37;77.52;98149.06;5077319;28;19928;-64
2023/08/18 06:37:45;;;;;;;;;;;;;;;19.49;77.38;98155.56;5100859;28;20028;-65
2023/08/18 06:40:13;;;;;;;;;;;;;;;19.58;77.58;98153.41;5094815;28;19924;-65
2023/08/18 06:42:41;;;;;;;;;;;;;;;19.65;77.47;98150.00;5065798;28;19989;-65
2023/08/18 06:45:09;;;;;;;;;;;;;;;19.54;77.08;98141.50;5082258;28;19924;-65
2023/08/18 06:47:37;;;;;;;;;;;;;;;19.59;76.76;98149.50;5089396;28;19939;-64
2023/08/18 06:50:07;;;;;;;;;;;;;;;19.63;77.01;98151.16;5098624;28;19924;-65
2023/08/18 06:52:35;;;;;;;;;;;;;;;19.69;77.58;98148.13;5092992;28;19931;-65
2023/08/18 06:55:03;;;;;;;;;;;;;;;19.79;77.41;98153.81;5084286;28;19935;-67
2023/08/18 06:57:32;;;;;;;;;;;;;;;19.82;77.40;98146.78;5062537;28;20586;-64
2023/08/18 07:00:00;;;;;;;;;;;;;;;19.88;77.31;98146.13;5088860;28;19958;-65
2023/08/18 07:02:28;;;;;;;;;;;;;;;19.96;78.02;98143.47;5088797;28;19928;-65
2023/08/18 07:04:57;;;;;;;;;;;;;;;19.87;77.72;98147.28;5090380;28;19924;-64
2023/08/18 07:07:26;;;;;;;;;;;;;;;20.04;77.68;98142.44;5085045;28;19924;-65
2023/08/18 07:09:54;;;;;;;;;;;;;;;20.09;76.68;98155.94;5061263;28;19931;-65
2023/08/18 07:12:22;;;;;;;;;;;;;;;20.15;77.64;98151.69;5105097;27;20248;-64
2023/08/18 07:14:50;;;;;;;;;;;;;;;20.22;77.79;98146.28;5062050;28;19925;-65
2023/08/18 07:17:18;;;;;;;;;;;;;;;20.15;76.62;98148.94;5090571;28;20281;-64
2023/08/18 07:19:46;;;;;;;;;;;;;;;20.19;75.61;98149.81;5090486;28;19930;-65
2023/08/18 07:22:14;;;;;;;;;;;;;;;20.21;75.09;98146.66;5089391;28;19951;-64
2023/08/18 07:24:43;;;;;;;;;;;;;;;20.28;75.64;98146.78;5080689;28;20016;-65
2023/08/18 07:27:13;;;;;;;;;;;;;;;20.34;75.16;98145.28;5071121;28;19931;-65
2023/08/18 07:29:41;;;;;;;;;;;;;;;20.35;76.00;98136.66;5088372;28;20117;-65
2023/08/18 07:32:09;;;;;;;;;;;;;;;20.37;75.70;98147.31;5089897;28;19927;-65
2023/08/18 07:34:37;;;;;;;;;;;;;;;20.47;75.41;98146.72;5088438;28;19928;-65
2023/08/18 07:37:05;;;;;;;;;;;;;;;20.55;76.08;98139.34;5070463;28;19973;-65
2023/08/18 07:39:34;;;;;;;;;;;;;;;20.62;75.38;98136.69;5081532;28;19928;-65
2023/08/18 07:42:03;;;;;;;;;;;;;;;20.73;75.61;98137.66;5088049;28;19961;-64
2023/08/18 07:44:31;;;;;;;;;;;;;;;20.83;76.10;98138.97;5070896;28;19939;-65
2023/08/18 07:46:59;;;;;;;;;;;;;;;20.85;76.47;98145.69;5069249;28;19970;-65
2023/08/18 07:49:27;;;;;;;;;;;;;;;20.92;75.96;98145.78;5094979;28;20386;-65
2023/08/18 07:51:55;;;;;;;;;;;;;;;21.03;75.99;98153.41;5088081;28;20015;-65
2023/08/18 07:54:23;;;;;;;;;;;;;;;21.04;75.49;98153.06;5084964;28;19927;-64
2023/08/18 07:56:52;;;;;;;;;;;;;;;21.07;75.74;98152.31;5083091;28;19974;-64
2023/08/18 07:59:21;;;;;;;;;;;;;;;21.06;74.89;98149.91;5071301;28;19924;-65
2023/08/18 08:01:49;;;;;;;;;;;;;;;21.18;75.27;98138.63;5104292;28;19928;-65
2023/08/18 08:04:17;;;;;;;;;;;;;;;21.29;75.46;98149.81;5088993;28;19924;-66
2023/08/18 08:06:45;;;;;;;;;;;;;;;21.22;75.39;98147.75;5103233;28;19924;-65
2023/08/18 08:09:13;;;;;;;;;;;;;;;21.27;75.55;98146.63;5052558;28;19925;-65
2023/08/18 08:11:42;;;;;;;;;;;;;;;21.30;75.07;98154.19;5082989;28;19924;-65
2023/08/18 08:14:09;;;;;;;;;;;;;;;21.32;75.26;98149.88;5074340;28;19969;-65
2023/08/18 08:16:39;;;;;;;;;;;;;;;21.45;74.92;98155.94;5076870;28;20023;-65
2023/08/18 08:19:09;;;;;;;;;;;;;;;21.49;75.14;98156.00;5096869;28;19982;-65
2023/08/18 08:21:38;;;;;;;;;;;;;;;21.55;75.22;98157.25;5063633;28;19924;-65
2023/08/18 08:24:06;;;;;;;;;;;;;;;21.67;75.28;98156.97;5072487;28;20638;-65
2023/08/18 08:26:34;;;;;;;;;;;;;;;21.70;73.92;98159.00;5074073;28;20273;-65
2023/08/18 08:29:02;;;;;;;;;;;;;;;21.82;73.66;98157.94;5092390;28;19932;-65
2023/08/18 08:31:31;;;;;;;;;;;;;;;21.90;73.89;98156.84;5092934;28;20457;-65
2023/08/18 08:34:00;;;;;;;;;;;;;;;21.82;72.61;98166.22;5103063;28;20392;-65
2023/08/18 08:36:32;;;;;;;;;;;;;;;21.83;71.86;98162.28;5101521;28;19950;-65
2023/08/18 08:39:00;;;;;;;;;;;;;;;21.96;72.17;98167.16;5074598;28;19936;-65
2023/08/18 08:41:28;;;;;;;;;;;;;;;22.03;72.36;98157.34;5073292;28;19932;-65
2023/08/18 08:43:56;;;;;;;;;;;;;;;21.96;69.05;98166.38;5074461;28;19924;-64
2023/08/18 08:46:24;;;;;;;;;;;;;;;22.02;69.26;98167.63;5092211;28;19924;-65
2023/08/18 08:48:52;;;;;;;;;;;;;;;22.09;69.55;98167.69;5091736;28;20057;-64
2023/08/18 08:51:22;;;;;;;;;;;;;;;22.17;70.38;98168.59;5097528;28;19931;-65
2023/08/18 08:53:54;;;;;;;;;;;;;;;22.23;69.95;98156.78;5072643;28;19928;-65
2023/08/18 08:56:22;;;;;;;;;;;;;;;22.32;71.05;98162.00;5072436;28;19933;-66
2023/08/18 08:58:50;;;;;;;;;;;;;;;22.24;70.14;98171.41;5088534;28;20419;-65
2023/08/18 09:01:20;;;;;;;;;;;;;;;22.31;69.17;98157.63;5088888;28;20395;-65
2023/08/18 09:03:49;;;;;;;;;;;;;;;22.32;69.00;98162.00;5086214;28;20290;-68
2023/08/18 09:06:17;;;;;;;;;;;;;;;22.37;68.52;98158.88;5091609;28;19924;-65
2023/08/18 09:08:46;;;;;;;;;;;;;;;22.42;68.88;98164.03;5091994;28;19924;-65
2023/08/18 09:11:14;;;;;;;;;;;;;;;22.48;68.35;98164.50;5073602;28;19924;-66
2023/08/18 09:13:42;;;;;;;;;;;;;;;22.57;68.39;98167.72;5091048;28;19924;-67
2023/08/18 09:16:10;;;;;;;;;;;;;;;22.63;68.19;98168.13;5073106;28;19976;-65
2023/08/18 09:18:38;;;;;;;;;;;;;;;22.72;69.18;98163.06;5092421;28;19924;-66
2023/08/18 09:21:06;;;;;;;;;;;;;;;22.67;66.32;98166.19;5090246;28;19924;-65
2023/08/18 09:23:34;;;;;;;;;;;;;;;22.63;66.80;98159.84;5089570;28;19924;-65
2023/08/18 09:26:04;;;;;;;;;;;;;;;22.74;67.27;98155.97;5083018;28;20396;-65
2023/08/18 09:28:33;;;;;;;;;;;;;;;22.75;67.37;98165.09;5063901;28;19943;-66
2023/08/18 09:31:00;;;;;;;;;;;;;;;22.80;68.17;98159.19;5091939;28;19989;-66
2023/08/18 09:33:30;;;;;;;;;;;;;;;22.84;68.22;98159.97;5072729;28;19931;-65
2023/08/18 09:36:02;;;;;;;;;;;;;;;22.86;67.77;98154.06;5071372;28;20016;-66
2023/08/18 09:38:36;;;;;;;;;;;;;;;22.93;67.88;98148.59;5089784;28;19924;-65
2023/08/18 09:41:05;;;;;;;;;;;;;;;22.99;67.92;98150.59;5072287;28;19982;-65
2023/08/18 09:43:34;;;;;;;;;;;;;;;22.99;67.71;98147.81;5072254;28;19932;-66
2023/08/18 09:46:04;;;;;;;;;;;;;;;22.99;67.33;98142.28;5071725;28;20095;-65
2023/08/18 09:48:35;;;;;;;;;;;;;;;23.05;66.77;98139.13;5095148;28;20010;-65
2023/08/18 09:51:03;;;;;;;;;;;;;;;23.10;64.30;98142.34;5072254;28;19963;-68
2023/08/18 09:53:31;;;;;;;;;;;;;;;23.14;61.67;98148.69;5069916;28;19928;-66
2023/08/18 09:56:00;;;;;;;;;;;;;;;23.18;60.35;98140.41;5072605;28;19924;-66
2023/08/18 09:58:32;;;;;;;;;;;;;;;23.22;61.30;98143.97;5087977;28;20027;-66
2023/08/18 10:00:59;;;;;;;;;;;;;;;23.27;61.89;98146.38;5069495;28;19963;-67
2023/08/18 10:03:27;;;;;;;;;;;;;;;23.27;63.11;98140.81;5088594;28;19924;-66
2023/08/18 10:05:55;;;;;;;;;;;;;;;23.25;63.91;98140.44;5083083;28;19931;-66
2023/08/18 10:08:23;;;;;;;;;;;;;;;23.30;63.55;98140.06;5090833;28;19930;-66
2023/08/18 10:10:51;;;;;;;;;;;;;;;23.39;63.91;98134.94;5068745;28;19967;-67
2023/08/18 10:13:19;;;;;;;;;;;;;;;23.38;63.06;98132.53;5089928;28;19928;-66
2023/08/18 10:15:48;;;;;;;;;;;;;;;23.36;61.82;98126.59;5068912;28;19935;-67
2023/08/18 10:18:17;;;;;;;;;;;;;;;23.40;62.98;98127.41;5061759;28;19958;-64
2023/08/18 10:20:48;;;;;;;;;;;;;;;23.47;62.94;98130.19;5088058;28;19927;-65
2023/08/18 10:23:17;;;;;;;;;;;;;;;23.49;62.60;98128.66;5090398;28;19946;-65
2023/08/18 10:25:45;;;;;;;;;;;;;;;23.50;62.25;98124.69;5095342;28;20002;-67
2023/08/18 10:28:17;;;;;;;;;;;;;;;23.56;59.25;98121.53;5070545;28;19924;-67
2023/08/18 10:30:52;;;;;;;;;;;;;;;23.58;60.63;98119.13;5072003;28;20342;-67
2023/08/18 10:33:27;;;;;;;;;;;;;;;23.59;62.29;98115.97;5073395;28;19924;-68
2023/08/18 10:35:56;;;;;;;;;;;;;;;23.64;63.69;98121.16;5087988;28;19928;-66
2023/08/18 10:38:26;;;;;;;;;;;;;;;23.63;63.29;98110.47;5081240;28;19925;-66
2023/08/18 10:40:54;;;;;;;;;;;;;;;23.66;63.01;98110.47;5080944;28;19924;-66
2023/08/18 10:43:22;;;;;;;;;;;;;;;23.65;63.21;98110.84;5083817;28;20266;-68
2023/08/18 10:45:52;;;;;;;;;;;;;;;23.72;62.48;98119.22;5076962;28;19928;-67
2023/08/18 10:48:20;;;;;;;;;;;;;;;23.81;61.43;98114.09;5093238;28;20398;-66
2023/08/18 10:50:48;;;;;;;;;;;;;;;23.84;61.32;98109.72;5070949;28;19964;-66
2023/08/18 10:53:16;;;;;;;;;;;;;;;23.89;61.50;98110.13;5085231;28;20300;-66
2023/08/18 10:55:44;;;;;;;;;;;;;;;23.91;61.57;98110.50;5073627;28;20285;-66
2023/08/18 10:58:13;;;;;;;;;;;;;;;23.98;60.79;98107.75;5084580;28;20011;-66
2023/08/18 11:00:40;;;;;;;;;;;;;;;23.99;61.37;98100.22;5061253;28;19924;-66
2023/08/18 11:03:10;;;;;;;;;;;;;;;24.00;61.86;98097.03;5081504;28;19924;-67
2023/08/18 11:05:38;;;;;;;;;;;;;;;23.96;62.14;98098.22;5085991;28;19970;-67
2023/08/18 11:08:09;;;;;;;;;;;;;;;23.97;62.46;98097.84;5087238;28;19935;-67
2023/08/18 11:10:38;;;;;;;;;;;;;;;24.02;63.02;98097.44;5071008;28;19931;-66
2023/08/18 11:13:06;;;;;;;;;;;;;;;23.98;62.09;98093.88;5090786;28;20308;-68
2023/08/18 11:15:34;;;;;;;;;;;;;;;24.05;61.72;98093.88;5091213;28;19931;-68
2023/08/18 11:18:02;;;;;;;;;;;;;;;24.11;62.24;98090.69;5089199;28;19946;-66
2023/08/18 11:20:31;;;;;;;;;;;;;;;24.17;59.92;98092.66;5071372;28;19931;-66
2023/08/18 11:22:58;;;;;;;;;;;;;;;24.39;59.61;98085.13;5090157;28;19928;-66
2023/08/18 11:25:26;;;;;;;;;;;;;;;24.48;59.74;98091.09;5088725;28;20018;-66
2023/08/18 11:27:54;;;;;;;;;;;;;;;24.54;58.40;98097.81;5069961;28;20026;-65
2023/08/18 11:30:22;;;;;;;;;;;;;;;24.60;58.50;98100.19;5088990;28;19924;-66
2023/08/18 11:32:53;;;;;;;;;;;;;;;24.56;59.62;98089.09;5071656;28;19924;-67
2023/08/18 11:35:22;;;;;;;;;;;;;;;24.45;60.37;98091.91;5088322;28;20387;-67
2023/08/18 11:37:53;;;;;;;;;;;;;;;24.43;61.55;98096.25;5089498;28;19928;-66
2023/08/18 11:40:22;;;;;;;;;;;;;;;24.43;61.42;98088.72;5088501;28;19925;-68
2023/08/18 11:42:50;;;;;;;;;;;;;;;24.56;58.56;98094.66;5089209;28;19924;-66
2023/08/18 11:45:21;;;;;;;;;;;;;;;24.62;59.37;98087.50;5070130;28;19931;-66
2023/08/18 11:47:57;;;;;;;;;;;;;;;24.55;59.80;98088.31;5104654;28;20435;-67
2023/08/18 11:50:30;;;;;;;;;;;;;;;24.52;59.86;98078.00;5084092;28;19928;-67
2023/08/18 11:52:59;;;;;;;;;;;;;;;24.61;60.26;98079.53;5087700;28;19928;-67
2023/08/18 11:55:31;;;;;;;;;;;;;;;24.70;58.30;98071.59;5088391;28;19931;-67
2023/08/18 11:57:59;;;;;;;;;;;;;;;24.64;59.09;98078.75;5091127;28;19931;-67
2023/08/18 12:00:31;;;;;;;;;;;;;;;24.70;57.68;98077.16;5100459;28;20336;-66
2023/08/18 12:02:59;;;;;;;;;;;;;;;24.66;58.83;98079.13;5096595;28;19947;-67
2023/08/18 12:05:27;;;;;;;;;;;;;;;24.67;59.73;98072.41;5090717;28;20270;-67
2023/08/18 12:07:55;;;;;;;;;;;;;;;24.64;60.36;98067.66;5075733;28;19924;-67
2023/08/18 12:10:24;;;;;;;;;;;;;;;24.68;59.38;98068.44;5092964;28;19928;-67
2023/08/18 12:12:52;;;;;;;;;;;;;;;24.66;58.99;98065.25;5093127;28;19931;-67
2023/08/18 12:15:21;;;;;;;;;;;;;;;24.63;57.90;98057.72;5093105;28;19924;-66
2023/08/18 12:17:49;;;;;;;;;;;;;;;24.62;59.26;98067.28;5074400;28;19924;-67
2023/08/18 12:20:19;;;;;;;;;;;;;;;24.76;58.24;98064.44;5104283;28;19932;-67
2023/08/18 12:22:47;;;;;;;;;;;;;;;24.76;57.50;98058.88;5099144;28;20443;-67
2023/08/18 12:25:17;;;;;;;;;;;;;;;24.90;57.23;98061.59;5083343;28;19982;-67
2023/08/18 12:27:47;;;;;;;;;;;;;;;24.88;57.88;98066.78;5092917;28;19924;-67
2023/08/18 12:30:15;;;;;;;;;;;;;;;24.93;57.67;98055.25;5092548;28;20430;-67
2023/08/18 12:32:43;;;;;;;;;;;;;;;24.89;56.77;98057.25;5093127;28;20358;-68
2023/08/18 12:35:11;;;;;;;;;;;;;;;24.91;56.88;98057.63;5091069;28;19924;-67
2023/08/18 12:37:39;;;;;;;;;;;;;;;25.04;55.74;98052.44;5093186;28;19924;-67
2023/08/18 12:40:10;;;;;;;;;;;;;;;25.09;55.79;98054.81;5090523;28;19924;-67
2023/08/18 12:42:38;;;;;;;;;;;;;;;25.10;56.65;98050.06;5103673;28;19946;-67
2023/08/18 12:45:08;;;;;;;;;;;;;;;25.07;57.04;98051.63;5080333;28;20278;-67
2023/08/18 12:47:36;;;;;;;;;;;;;;;24.97;57.83;98056.00;5093120;28;19990;-67
2023/08/18 12:50:04;;;;;;;;;;;;;;;25.05;57.73;98052.03;5060768;28;19924;-67
2023/08/18 12:52:35;;;;;;;;;;;;;;;25.04;57.77;98052.44;5088630;28;19931;-67
2023/08/18 12:55:04;;;;;;;;;;;;;;;25.01;57.80;98045.69;5089444;28;19935;-68